Time;durP1;ratioP1;P1;durP2;ratioP2;P2;SDS_P1;SDS_P2;PMS_P1;PMS_P2;Temp;Humidity;BMP_temperature;BMP_pressure;BME280_temperature;BME280_humidity;BME280_pressure;Samples;Min_cycle;Max_cycle;Signal;HPM_P1;HPM_P2
2021/07/12 00:00:06;;;;;;;3.07;2.27;;;;;;;20.74;94.33;101034.53;5055581;28;20511;-73
2021/07/12 00:02:33;;;;;;;3.30;2.80;;;;;;;20.72;94.23;101032.16;5055565;28;20438;-72
2021/07/12 00:04:59;;;;;;;3.80;2.67;;;;;;;20.74;94.37;101034.53;5055409;28;20881;-73
2021/07/12 00:07:26;;;;;;;2.70;2.30;;;;;;;20.75;93.90;101025.91;5055177;28;20441;-73
2021/07/12 00:09:52;;;;;;;3.90;2.50;;;;;;;20.76;93.87;101024.75;5055416;28;20442;-73
2021/07/12 00:12:19;;;;;;;3.20;2.57;;;;;;;20.74;94.54;101029.03;5055298;28;20486;-72
2021/07/12 00:14:46;;;;;;;2.80;2.50;;;;;;;20.75;94.79;101030.59;5055254;28;20494;-73
2021/07/12 00:17:13;;;;;;;3.40;2.80;;;;;;;20.74;94.94;101026.25;5055293;28;20446;-72
2021/07/12 00:19:39;;;;;;;3.60;2.90;;;;;;;20.69;95.18;101029.31;5055252;28;20488;-72
2021/07/12 00:22:06;;;;;;;4.03;2.63;;;;;;;20.64;94.93;101031.19;5055169;28;20446;-72
2021/07/12 00:24:32;;;;;;;4.50;2.87;;;;;;;20.60;94.20;101029.50;5055130;28;20468;-73
2021/07/12 00:26:59;;;;;;;3.43;2.93;;;;;;;20.56;92.85;101026.66;5055146;28;20438;-72
2021/07/12 00:29:25;;;;;;;2.87;2.57;;;;;;;20.50;92.07;101025.34;5055042;28;20446;-73
2021/07/12 00:31:53;;;;;;;4.20;2.83;;;;;;;20.45;92.11;101025.56;5061687;28;21007;-73
2021/07/12 00:34:19;;;;;;;3.60;2.67;;;;;;;20.40;93.13;101021.13;5054705;28;20939;-73
2021/07/12 00:36:46;;;;;;;3.10;2.53;;;;;;;20.38;93.94;101025.41;5054613;28;20439;-73
2021/07/12 00:39:12;;;;;;;5.73;3.30;;;;;;;20.31;94.61;101026.03;5054943;28;20496;-73
2021/07/12 00:41:39;;;;;;;3.07;2.27;;;;;;;20.27;94.84;101029.84;5054826;28;20439;-75
2021/07/12 00:44:06;;;;;;;3.67;2.43;;;;;;;20.23;95.96;101032.53;5054812;28;20503;-74
2021/07/12 00:46:33;;;;;;;4.77;2.30;;;;;;;20.21;96.55;101034.03;5054394;28;20465;-74
2021/07/12 00:49:01;;;;;;;3.70;3.00;;;;;;;20.21;96.53;101029.31;5054638;28;20503;-74
2021/07/12 00:51:28;;;;;;;7.20;3.40;;;;;;;20.16;97.63;101027.63;5054541;28;20505;-74
2021/07/12 00:53:54;;;;;;;5.60;3.20;;;;;;;20.13;98.18;101033.84;5054286;28;20438;-74
2021/07/12 00:56:21;;;;;;;3.67;2.77;;;;;;;20.15;97.86;101023.31;5054418;28;20462;-74
2021/07/12 00:58:47;;;;;;;5.73;2.80;;;;;;;20.15;98.41;101028.00;5054557;28;20442;-75
2021/07/12 01:01:14;;;;;;;4.00;3.13;;;;;;;20.14;98.71;101024.47;5054455;28;20441;-74
2021/07/12 01:03:40;;;;;;;3.90;3.00;;;;;;;20.14;98.62;101020.88;5054431;28;20438;-74
2021/07/12 01:06:08;;;;;;;3.77;2.83;;;;;;;20.14;99.10;101018.13;5053958;28;20466;-74
2021/07/12 01:08:35;;;;;;;4.93;2.83;;;;;;;20.17;99.54;101020.19;5054370;28;20462;-74
2021/07/12 01:11:12;;;;;;;2.70;2.23;;;;;;;20.16;98.93;101024.88;5054213;28;20449;-74
2021/07/12 01:13:45;;;;;;;3.67;2.40;;;;;;;20.17;99.13;101026.47;5054389;28;20492;-74
2021/07/12 01:16:25;;;;;;;3.37;2.73;;;;;;;20.16;98.49;101024.88;5054133;28;20466;-74
2021/07/12 01:18:58;;;;;;;3.00;2.67;;;;;;;20.20;98.61;101024.97;5054120;28;20434;-70
2021/07/12 01:22:02;;;;;;;3.80;2.90;;;;;;;20.23;99.01;101026.22;5054116;28;20430;-71
2021/07/12 01:25:28;;;;;;;2.80;2.37;;;;;;;20.23;98.96;101024.28;5053645;28;20446;-70
2021/07/12 01:28:42;;;;;;;3.10;2.50;;;;;;;20.23;98.45;101016.03;5053747;28;20415;-72
2021/07/12 01:31:41;;;;;;;2.87;2.37;;;;;;;20.22;98.64;101022.66;5053795;28;20430;-72
2021/07/12 01:34:13;;;;;;;3.93;2.80;;;;;;;20.19;98.84;101026.16;5053849;28;20422;-72
2021/07/12 01:36:44;;;;;;;3.03;2.67;;;;;;;20.17;99.30;101020.19;5053721;28;20920;-72
2021/07/12 01:39:15;;;;;;;4.63;2.97;;;;;;;20.17;99.12;101017.44;5053787;28;20442;-72
2021/07/12 01:41:49;;;;;;;2.97;2.57;;;;;;;20.15;99.51;101012.28;5053344;28;20932;-72
2021/07/12 01:44:28;;;;;;;3.70;3.20;;;;;;;20.12;99.43;101009.44;5053722;28;20503;-69
2021/07/12 01:47:04;;;;;;;5.10;3.37;;;;;;;20.09;99.60;101016.44;5053630;28;20442;-69
2021/07/12 01:49:37;;;;;;;3.60;2.40;;;;;;;20.06;99.53;101005.38;5053314;28;20900;-68
2021/07/12 01:52:10;;;;;;;4.10;2.80;;;;;;;20.04;100.00;101004.94;5053473;28;20474;-69
2021/07/12 01:54:39;;;;;;;3.63;2.80;;;;;;;20.00;99.88;101001.28;5053128;28;20912;-69
2021/07/12 01:57:08;;;;;;;3.23;2.93;;;;;;;19.97;99.74;101000.06;5053458;28;20449;-69
2021/07/12 01:59:39;;;;;;;2.47;2.27;;;;;;;19.94;99.99;101005.47;5053434;28;20503;-68
2021/07/12 02:02:08;;;;;;;2.60;2.40;;;;;;;19.91;100.00;101002.25;5053386;28;20426;-69
2021/07/12 02:04:38;;;;;;;3.37;3.03;;;;;;;19.87;100.00;100997.81;5052945;28;20496;-69
2021/07/12 02:07:05;;;;;;;3.60;2.73;;;;;;;19.85;100.00;100995.44;5053303;28;20449;-68
2021/07/12 02:09:34;;;;;;;5.03;2.40;;;;;;;19.81;100.00;100989.03;5052949;28;20943;-69
2021/07/12 02:12:02;;;;;;;3.80;3.07;;;;;;;19.80;100.00;100992.16;5053106;28;20489;-69
2021/07/12 02:14:29;;;;;;;3.83;2.63;;;;;;;19.75;100.00;100993.22;5053377;28;20442;-69
2021/07/12 02:16:57;;;;;;;4.00;2.83;;;;;;;19.70;100.00;100993.47;5053127;28;20438;-69
2021/07/12 02:19:25;;;;;;;2.53;2.33;;;;;;;19.67;100.00;100982.38;5052443;28;20487;-68
2021/07/12 02:21:53;;;;;;;4.50;2.90;;;;;;;19.62;100.00;100984.25;5053098;28;20449;-69
2021/07/12 02:24:22;;;;;;;3.67;2.60;;;;;;;19.60;100.00;100975.53;5053012;28;20442;-69
2021/07/12 02:26:50;;;;;;;4.43;3.50;;;;;;;19.57;100.00;100978.97;5052751;28;20867;-69
2021/07/12 02:29:19;;;;;;;4.97;3.20;;;;;;;19.55;100.00;100980.47;5052777;28;20818;-69
2021/07/12 02:31:49;;;;;;;4.07;3.37;;;;;;;19.53;100.00;100971.78;5059782;28;20508;-70
2021/07/12 02:34:15;;;;;;;3.87;3.00;;;;;;;19.48;100.00;100969.28;5053127;28;20442;-70
2021/07/12 02:36:42;;;;;;;4.13;3.17;;;;;;;19.44;100.00;100968.41;5052695;28;20979;-70
2021/07/12 02:39:11;;;;;;;3.57;2.30;;;;;;;19.40;100.00;100968.31;5052958;28;20437;-69
2021/07/12 02:41:38;;;;;;;4.17;3.17;;;;;;;19.37;100.00;100969.78;5052942;28;20442;-69
2021/07/12 02:44:08;;;;;;;4.20;3.30;;;;;;;19.37;100.00;100969.78;5052916;28;20442;-69
2021/07/12 02:46:35;;;;;;;3.80;3.20;;;;;;;19.32;100.00;100967.31;5052807;28;20474;-69
2021/07/12 02:49:02;;;;;;;2.90;2.43;;;;;;;19.35;100.00;100957.56;5052858;28;20442;-69
2021/07/12 02:51:34;;;;;;;3.43;3.10;;;;;;;19.33;100.00;100959.84;5052751;28;20450;-69
2021/07/12 02:54:03;;;;;;;3.50;3.03;;;;;;;19.33;100.00;100963.41;5052834;28;20448;-69
2021/07/12 02:56:31;;;;;;;3.37;2.70;;;;;;;19.35;100.00;100957.56;5052744;28;20485;-69
2021/07/12 02:58:58;;;;;;;3.37;2.60;;;;;;;19.36;100.00;100959.16;5052780;28;20446;-70
2021/07/12 03:01:25;;;;;;;3.30;2.43;;;;;;;19.33;100.00;100952.41;5052792;28;20490;-69
2021/07/12 03:03:53;;;;;;;2.77;2.53;;;;;;;19.36;100.00;100956.41;5052692;28;20441;-70
2021/07/12 03:06:22;;;;;;;3.20;2.63;;;;;;;19.38;100.00;100965.88;5052318;28;21071;-69
2021/07/12 03:08:55;;;;;;;3.10;2.50;;;;;;;19.40;100.00;100957.31;5052644;28;20450;-69
2021/07/12 03:11:26;;;;;;;3.87;2.70;;;;;;;19.39;100.00;100966.72;5052724;28;20426;-69
2021/07/12 03:13:58;;;;;;;2.60;2.10;;;;;;;19.39;100.00;100959.25;5052282;28;20826;-70
2021/07/12 03:16:27;;;;;;;3.80;3.23;;;;;;;19.41;100.00;100959.69;5052682;28;20462;-69
2021/07/12 03:18:57;;;;;;;5.00;4.17;;;;;;;19.46;100.00;100963.34;5052534;28;20434;-70
2021/07/12 03:21:25;;;;;;;3.50;2.50;;;;;;;19.48;100.00;100961.03;5052992;28;20435;-69
2021/07/12 03:23:55;;;;;;;4.60;3.20;;;;;;;19.49;100.00;100960.69;5052504;28;20446;-70
2021/07/12 03:26:23;;;;;;;3.33;2.63;;;;;;;19.52;100.00;100953.69;5052068;28;20481;-70
2021/07/12 03:28:53;;;;;;;5.07;2.53;;;;;;;19.55;100.00;100958.47;5052302;28;20944;-70
2021/07/12 03:31:24;;;;;;;5.93;3.37;;;;;;;19.55;100.00;100961.22;5056129;28;20442;-69
2021/07/12 03:33:53;;;;;;;3.50;3.20;;;;;;;19.57;100.00;100961.69;5056119;28;20463;-70
2021/07/12 03:36:20;;;;;;;4.47;3.60;;;;;;;19.57;100.00;100967.19;5056249;28;20466;-69
2021/07/12 03:38:47;;;;;;;2.50;2.30;;;;;;;19.58;100.00;100960.53;5055968;28;20442;-70
2021/07/12 03:41:14;;;;;;;4.87;3.33;;;;;;;19.61;100.00;100968.09;5055318;28;20462;-69
2021/07/12 03:43:41;;;;;;;4.03;3.63;;;;;;;19.64;100.00;100961.88;5055897;28;20449;-69
2021/07/12 03:46:09;;;;;;;3.63;2.70;;;;;;;19.64;100.00;100957.19;5055442;28;21002;-69
2021/07/12 03:48:39;;;;;;;4.13;3.40;;;;;;;19.63;100.00;100955.59;5055830;28;20466;-69
2021/07/12 03:51:08;;;;;;;3.63;3.10;;;;;;;19.66;100.00;100954.09;5055813;28;20446;-70
2021/07/12 03:53:34;;;;;;;5.03;3.23;;;;;;;19.72;100.00;100958.19;5055640;28;20478;-69
2021/07/12 03:56:01;;;;;;;3.67;3.13;;;;;;;19.76;100.00;100955.53;5055252;28;20474;-69
2021/07/12 03:58:28;;;;;;;3.33;2.90;;;;;;;19.80;100.00;100957.22;5055670;28;20454;-70
2021/07/12 04:00:54;;;;;;;5.30;3.53;;;;;;;19.86;100.00;100952.22;5055612;28;20438;-70
2021/07/12 04:03:21;;;;;;;3.83;3.30;;;;;;;19.88;100.00;100959.00;5055552;28;20434;-70
2021/07/12 04:05:48;;;;;;;4.40;3.20;;;;;;;19.94;100.00;100953.22;5055485;28;20488;-70
2021/07/12 04:08:15;;;;;;;3.30;2.83;;;;;;;19.96;100.00;100950.91;5055512;28;20469;-69
2021/07/12 04:10:41;;;;;;;4.90;3.07;;;;;;;20.00;100.00;100943.53;5055400;28;20445;-69
2021/07/12 04:13:08;;;;;;;4.03;2.87;;;;;;;19.99;100.00;100934.50;5055257;28;20482;-70
2021/07/12 04:15:35;;;;;;;3.30;2.90;;;;;;;19.98;100.00;100937.59;5055264;28;20501;-69
2021/07/12 04:18:02;;;;;;;3.50;3.10;;;;;;;19.99;100.00;100934.50;5055234;28;20446;-70
2021/07/12 04:20:28;;;;;;;4.00;2.90;;;;;;;20.04;100.00;100938.91;5055281;28;20468;-70
2021/07/12 04:22:56;;;;;;;5.00;3.17;;;;;;;20.06;100.00;100937.41;5055263;28;20454;-70
2021/07/12 04:25:23;;;;;;;3.67;3.23;;;;;;;20.08;100.00;100931.56;5054980;28;20478;-71
2021/07/12 04:27:49;;;;;;;3.47;3.03;;;;;;;20.09;100.00;100935.91;5056483;28;20454;-73
2021/07/12 04:30:17;;;;;;;4.30;3.30;;;;;;;20.12;100.00;100933.22;5061944;28;20422;-73
2021/07/12 04:32:43;;;;;;;4.03;3.07;;;;;;;20.16;100.00;100933.31;5054972;28;20557;-73
2021/07/12 04:35:11;;;;;;;5.00;3.57;;;;;;;20.20;100.00;100938.91;5054894;28;20488;-74
2021/07/12 04:37:38;;;;;;;5.23;3.13;;;;;;;20.23;100.00;100947.25;5054940;28;20453;-74
2021/07/12 04:40:07;;;;;;;4.03;2.83;;;;;;;20.24;100.00;100957.09;5054863;28;20449;-75
2021/07/12 04:42:34;;;;;;;5.20;3.47;;;;;;;20.26;100.00;100954.78;5054083;28;20443;-74
2021/07/12 04:45:02;;;;;;;4.20;3.30;;;;;;;20.25;100.00;100964.19;5054478;28;20457;-74
2021/07/12 04:47:28;;;;;;;3.97;3.37;;;;;;;20.28;100.00;100963.47;5054757;28;20473;-74
2021/07/12 04:49:54;;;;;;;4.27;3.60;;;;;;;20.32;100.00;100963.53;5054674;28;20458;-74
2021/07/12 04:52:21;;;;;;;4.63;3.50;;;;;;;20.35;100.00;100965.59;5054589;28;20496;-72
2021/07/12 04:54:47;;;;;;;5.50;3.33;;;;;;;20.37;100.00;100955.03;5054653;28;20458;-73
2021/07/12 04:57:15;;;;;;;6.40;3.80;;;;;;;20.41;100.00;100956.72;5054559;28;20462;-72
2021/07/12 04:59:41;;;;;;;6.43;2.97;;;;;;;20.45;100.00;100967.78;5054457;28;20442;-70
2021/07/12 05:02:09;;;;;;;6.87;3.30;;;;;;;20.48;100.00;100958.03;5054478;28;20438;-71
2021/07/12 05:04:36;;;;;;;4.47;3.13;;;;;;;20.51;100.00;100960.88;5054292;28;20440;-71
2021/07/12 05:07:02;;;;;;;5.47;3.80;;;;;;;20.55;100.00;100955.47;5053638;28;21021;-71
2021/07/12 05:09:29;;;;;;;5.77;3.50;;;;;;;20.60;100.00;100953.22;5054619;28;20442;-71
2021/07/12 05:11:56;;;;;;;4.40;3.50;;;;;;;20.65;100.00;100954.88;5054251;28;20454;-71
2021/07/12 05:14:25;;;;;;;4.70;3.80;;;;;;;20.65;99.17;100960.41;5054074;28;20478;-70
2021/07/12 05:16:52;;;;;;;3.63;3.13;;;;;;;20.66;98.06;100956.47;5053805;28;20939;-71
2021/07/12 05:19:18;;;;;;;4.70;3.40;;;;;;;20.69;98.27;100950.25;5054138;28;20445;-71
2021/07/12 05:21:45;;;;;;;6.17;3.80;;;;;;;20.74;98.59;100946.41;5054095;28;20449;-70
2021/07/12 05:24:12;;;;;;;3.83;2.93;;;;;;;20.81;98.75;100947.38;5054269;28;20438;-70
2021/07/12 05:26:38;;;;;;;5.33;4.07;;;;;;;20.89;99.37;100937.28;5053773;28;20482;-70
2021/07/12 05:29:05;;;;;;;3.80;2.80;;;;;;;20.97;99.39;100941.00;5054158;28;20438;-71
2021/07/12 05:31:33;;;;;;;4.67;3.10;;;;;;;21.05;99.57;100946.28;5054123;28;20446;-71
2021/07/12 05:33:59;;;;;;;4.50;3.47;;;;;;;21.11;98.65;100946.78;5053722;28;20486;-71
2021/07/12 05:36:26;;;;;;;5.03;3.80;;;;;;;21.16;98.46;100946.47;5053757;28;20470;-71
2021/07/12 05:38:52;;;;;;;3.27;2.97;;;;;;;21.22;98.44;100947.78;5053763;28;20450;-71
2021/07/12 05:41:18;;;;;;;5.80;3.40;;;;;;;21.26;98.49;100940.38;5054021;28;20454;-71
2021/07/12 05:43:45;;;;;;;4.17;3.30;;;;;;;21.32;98.25;100938.94;5053649;28;20447;-71
2021/07/12 05:46:11;;;;;;;3.30;2.90;;;;;;;21.37;97.91;100943.38;5053571;28;20829;-71
2021/07/12 05:48:39;;;;;;;5.03;3.40;;;;;;;21.44;98.08;100934.44;5053569;28;20442;-71
2021/07/12 05:51:06;;;;;;;4.23;3.83;;;;;;;21.47;97.92;100936.44;5053534;28;20446;-70
2021/07/12 05:53:34;;;;;;;4.40;3.50;;;;;;;21.50;97.95;100930.22;5052498;28;20489;-70
2021/07/12 05:56:00;;;;;;;4.90;3.50;;;;;;;21.53;97.33;100940.50;5053219;28;20871;-71
2021/07/12 05:58:26;;;;;;;4.73;3.53;;;;;;;21.60;97.25;100943.38;5053494;28;20598;-71
2021/07/12 06:00:55;;;;;;;4.60;3.50;;;;;;;21.62;96.99;100936.34;5053404;28;20445;-71
2021/07/12 06:03:22;;;;;;;4.20;3.53;;;;;;;21.69;96.66;100938.41;5053284;28;20489;-71
2021/07/12 06:05:49;;;;;;;5.40;3.50;;;;;;;21.76;96.50;100941.31;5052943;28;20883;-71
2021/07/12 06:08:16;;;;;;;3.70;3.30;;;;;;;21.80;96.39;100933.09;5053322;28;20445;-71
2021/07/12 06:10:42;;;;;;;4.37;3.77;;;;;;;21.87;96.41;100935.97;5053241;28;20864;-71
2021/07/12 06:13:09;;;;;;;4.47;3.53;;;;;;;21.90;96.28;100940.75;5052909;28;20532;-71
2021/07/12 06:15:36;;;;;;;3.93;3.50;;;;;;;21.97;95.61;100932.59;5052881;28;20856;-71
2021/07/12 06:18:03;;;;;;;3.70;3.30;;;;;;;22.04;94.91;100942.94;5053151;28;20435;-71
2021/07/12 06:20:30;;;;;;;4.70;3.00;;;;;;;22.09;94.22;100929.63;5052865;28;20969;-71
2021/07/12 06:22:57;;;;;;;3.90;2.67;;;;;;;22.14;93.93;100928.56;5053151;28;20442;-71
2021/07/12 06:25:24;;;;;;;3.57;2.90;;;;;;;22.21;93.60;100925.88;5052893;28;20478;-71
2021/07/12 06:27:50;;;;;;;5.70;3.00;;;;;;;22.31;93.34;100928.03;5053048;28;20453;-70
2021/07/12 06:30:17;;;;;;;5.33;3.60;;;;;;;22.39;92.32;100921.41;5059605;28;20960;-71
2021/07/12 06:32:44;;;;;;;3.90;3.07;;;;;;;22.47;92.42;100924.28;5053329;28;20439;-71
2021/07/12 06:35:12;;;;;;;7.07;3.73;;;;;;;22.53;91.92;100928.28;5052937;28;20450;-71
2021/07/12 06:37:39;;;;;;;3.67;3.30;;;;;;;22.55;91.00;100921.25;5053204;28;20446;-71
2021/07/12 06:40:08;;;;;;;4.50;4.00;;;;;;;22.55;91.18;100923.22;5053031;28;20487;-71
2021/07/12 06:42:34;;;;;;;3.73;3.43;;;;;;;22.58;91.57;100920.50;5052938;28;20439;-71
2021/07/12 06:45:01;;;;;;;4.43;3.50;;;;;;;22.61;90.91;100924.47;5052534;28;21006;-71
2021/07/12 06:47:28;;;;;;;4.63;3.50;;;;;;;22.65;91.15;100917.81;5052584;28;20816;-71
2021/07/12 06:49:55;;;;;;;3.83;2.83;;;;;;;22.66;90.80;100915.84;5052622;28;20920;-74
2021/07/12 06:52:21;;;;;;;3.43;2.93;;;;;;;22.61;91.23;100918.94;5052961;28;20438;-74
2021/07/12 06:54:48;;;;;;;3.57;3.27;;;;;;;22.59;91.61;100913.00;5052363;28;20995;-74
2021/07/12 06:57:16;;;;;;;2.47;2.27;;;;;;;22.65;91.17;100911.50;5052818;28;20442;-74
2021/07/12 06:59:43;;;;;;;4.73;3.57;;;;;;;22.69;91.40;100917.84;5052846;28;20478;-74
2021/07/12 07:02:10;;;;;;;4.40;3.67;;;;;;;22.72;90.96;100925.41;5052639;28;20817;-75
2021/07/12 07:04:37;;;;;;;3.77;3.37;;;;;;;22.73;90.67;100921.47;5053171;28;20818;-73
2021/07/12 07:07:04;;;;;;;5.83;3.93;;;;;;;22.70;90.75;100924.97;5056604;28;20495;-73
2021/07/12 07:09:30;;;;;;;3.50;2.97;;;;;;;22.70;91.14;100919.44;5056611;28;20444;-72
2021/07/12 07:11:56;;;;;;;3.53;3.13;;;;;;;22.68;90.94;100924.56;5056542;28;20437;-70
2021/07/12 07:14:24;;;;;;;4.00;3.10;;;;;;;22.69;90.66;100917.84;5056308;28;20489;-75
2021/07/12 07:16:51;;;;;;;5.80;4.63;;;;;;;22.74;91.25;100912.00;5056533;28;20433;-74
2021/07/12 07:19:17;;;;;;;7.77;4.30;;;;;;;22.78;90.03;100923.88;5056414;28;20449;-74
2021/07/12 07:21:44;;;;;;;4.27;3.47;;;;;;;22.91;89.31;100914.22;5056042;28;20856;-74
2021/07/12 07:24:10;;;;;;;5.03;3.90;;;;;;;22.98;88.80;100912.72;5056006;28;20954;-75
2021/07/12 07:26:37;;;;;;;4.20;3.50;;;;;;;23.05;89.02;100927.41;5056058;28;20519;-75
2021/07/12 07:29:03;;;;;;;5.90;4.23;;;;;;;23.17;88.78;100923.59;5056186;28;20442;-74
2021/07/12 07:31:31;;;;;;;3.50;3.20;;;;;;;23.25;88.32;100930.78;5056163;28;20488;-74
2021/07/12 07:33:57;;;;;;;3.93;3.57;;;;;;;23.38;87.87;100917.50;5055658;28;20478;-75
2021/07/12 07:36:24;;;;;;;4.83;4.07;;;;;;;23.52;87.55;100920.38;5055989;28;20469;-74
2021/07/12 07:38:50;;;;;;;4.20;3.80;;;;;;;23.56;87.18;100906.59;5055742;28;20821;-75
2021/07/12 07:41:19;;;;;;;4.90;3.60;;;;;;;23.58;85.64;100909.75;5055895;28;20434;-74
2021/07/12 07:43:45;;;;;;;3.47;3.17;;;;;;;23.63;85.67;100906.63;5055353;28;20865;-74
2021/07/12 07:46:12;;;;;;;4.97;4.23;;;;;;;23.71;85.71;100911.09;5055654;28;20466;-75
2021/07/12 07:48:39;;;;;;;4.60;3.70;;;;;;;23.81;86.28;100909.56;5055329;28;20446;-75
2021/07/12 07:51:06;;;;;;;4.77;4.00;;;;;;;23.93;85.61;100909.28;5055601;28;20442;-75
2021/07/12 07:53:33;;;;;;;6.27;3.70;;;;;;;24.01;85.52;100902.63;5055221;28;21006;-75
2021/07/12 07:55:59;;;;;;;4.43;3.87;;;;;;;24.11;85.96;100903.88;5055665;28;20473;-75
2021/07/12 07:58:25;;;;;;;4.70;3.80;;;;;;;24.22;84.53;100909.50;5055539;28;20852;-75
2021/07/12 08:00:52;;;;;;;4.70;3.60;;;;;;;24.27;84.47;100904.38;5055620;28;20438;-74
2021/07/12 08:03:18;;;;;;;4.97;3.53;;;;;;;24.34;83.98;100904.41;5055629;28;20442;-75
2021/07/12 08:05:46;;;;;;;4.77;3.47;;;;;;;24.48;84.80;100908.44;5055520;28;20458;-75
2021/07/12 08:08:12;;;;;;;3.67;3.03;;;;;;;24.59;84.38;100906.53;5055280;28;20936;-75
2021/07/12 08:10:39;;;;;;;4.80;3.43;;;;;;;24.71;83.75;100900.66;5055443;28;20438;-75
2021/07/12 08:13:09;;;;;;;4.63;3.53;;;;;;;24.72;82.75;100899.47;5055415;28;20446;-75
2021/07/12 08:15:36;;;;;;;3.90;3.50;;;;;;;24.83;81.67;100891.97;5054580;28;20485;-75
2021/07/12 08:18:02;;;;;;;4.77;4.27;;;;;;;24.95;82.35;100884.50;5054983;28;20449;-75
2021/07/12 08:20:29;;;;;;;3.17;2.87;;;;;;;24.98;80.81;100883.72;5055319;28;20453;-75
2021/07/12 08:22:56;;;;;;;4.03;3.20;;;;;;;24.98;80.49;100883.72;5055257;28;20447;-75
2021/07/12 08:25:23;;;;;;;3.87;3.40;;;;;;;24.92;81.06;100880.53;5054963;28;20830;-75
2021/07/12 08:27:51;;;;;;;5.23;4.30;;;;;;;24.87;82.25;100876.16;5054796;28;20819;-75
2021/07/12 08:30:18;;;;;;;3.67;3.20;;;;;;;24.84;82.48;100868.66;5055122;28;20442;-75
2021/07/12 08:32:45;;;;;;;4.60;3.47;;;;;;;24.80;81.92;100865.06;5062074;28;20438;-74
2021/07/12 08:35:13;;;;;;;4.20;3.70;;;;;;;24.79;82.37;100869.03;5054866;28;20490;-74
2021/07/12 08:37:40;;;;;;;4.60;4.07;;;;;;;24.81;82.75;100868.63;5055005;28;20445;-74
2021/07/12 08:40:11;;;;;;;4.93;3.70;;;;;;;24.77;80.77;100867.81;5054916;28;20439;-75
2021/07/12 08:42:37;;;;;;;3.60;3.30;;;;;;;24.73;81.68;100869.78;5054892;28;20423;-75
2021/07/12 08:45:05;;;;;;;3.87;3.53;;;;;;;24.77;82.69;100874.16;5054732;28;20459;-75
2021/07/12 08:47:31;;;;;;;4.37;3.97;;;;;;;24.85;82.31;100864.69;5054788;28;20450;-75
2021/07/12 08:49:58;;;;;;;5.90;4.60;;;;;;;25.00;81.57;100876.59;5054691;28;20438;-75
2021/07/12 08:52:24;;;;;;;4.70;3.90;;;;;;;25.10;80.54;100875.03;5054668;28;20450;-75
2021/07/12 08:54:51;;;;;;;4.77;4.27;;;;;;;25.25;79.93;100859.25;5054517;28;20490;-74
2021/07/12 08:57:19;;;;;;;4.77;3.90;;;;;;;25.38;78.80;100866.78;5054314;28;20939;-75
2021/07/12 08:59:45;;;;;;;5.03;4.53;;;;;;;25.38;75.98;100866.00;5054483;28;20997;-75
2021/07/12 09:02:13;;;;;;;4.87;4.03;;;;;;;25.41;77.04;100867.94;5054156;28;20438;-75
2021/07/12 09:04:42;;;;;;;4.60;4.20;;;;;;;25.53;78.72;100859.25;5054335;28;20438;-73
2021/07/12 09:07:10;;;;;;;4.93;4.50;;;;;;;25.62;78.65;100867.16;5054051;28;20824;-72
2021/07/12 09:09:37;;;;;;;4.47;4.00;;;;;;;25.66;77.40;100860.44;5054572;28;20435;-70
2021/07/12 09:12:11;;;;;;;5.43;4.47;;;;;;;25.66;77.06;100854.09;5054242;28;20438;-73
2021/07/12 09:14:40;;;;;;;6.20;4.60;;;;;;;25.62;76.84;100853.28;5054120;28;20473;-73
2021/07/12 09:17:08;;;;;;;6.93;4.80;;;;;;;25.58;77.97;100846.94;5054231;28;20547;-72
2021/07/12 09:19:36;;;;;;;5.40;4.30;;;;;;;25.56;77.26;100852.91;5053796;28;20856;-72
2021/07/12 09:22:05;;;;;;;5.97;4.50;;;;;;;25.60;77.31;100842.59;5053738;28;20932;-72
2021/07/12 09:24:38;;;;;;;4.90;4.40;;;;;;;25.65;78.20;100836.66;5053740;28;20439;-72
2021/07/12 09:27:13;;;;;;;4.80;3.93;;;;;;;25.71;76.04;100839.81;5053790;28;20439;-73
2021/07/12 09:29:44;;;;;;;5.23;4.73;;;;;;;25.80;77.04;100840.22;5053952;28;20436;-73
2021/07/12 09:32:12;;;;;;;7.60;4.67;;;;;;;25.75;76.37;100837.81;5053917;28;20454;-73
2021/07/12 09:34:39;;;;;;;4.80;4.27;;;;;;;25.67;77.23;100841.78;5053686;28;20481;-72
2021/07/12 09:37:07;;;;;;;6.37;4.43;;;;;;;25.54;77.36;100833.06;5053801;28;20457;-73
2021/07/12 09:39:37;;;;;;;5.07;4.53;;;;;;;25.44;77.64;100839.44;5053461;28;20966;-73
2021/07/12 09:42:07;;;;;;;8.33;5.63;;;;;;;25.40;77.83;100839.44;5053738;28;20445;-73
2021/07/12 09:44:35;;;;;;;5.93;4.87;;;;;;;25.45;77.16;100835.47;5053606;28;20446;-73
2021/07/12 09:47:24;;;;;;;6.67;5.83;;;;;;;25.39;76.14;100834.28;5053313;28;20809;-72
2021/07/12 09:49:52;;;;;;;5.33;4.53;;;;;;;25.37;76.22;100834.69;5048779;28;20508;-73
2021/07/12 09:52:20;;;;;;;7.63;5.53;;;;;;;25.28;75.46;100828.75;5053545;28;20426;-73
2021/07/12 09:54:49;;;;;;;6.17;5.27;;;;;;;25.30;76.14;100826.34;5053103;28;20493;-73
2021/07/12 09:57:18;;;;;;;5.47;4.87;;;;;;;25.33;77.65;100831.13;5053504;28;20453;-72
2021/07/12 09:59:56;;;;;;;6.70;5.90;;;;;;;25.31;77.79;100825.16;5053420;28;20450;-72
2021/07/12 10:02:25;;;;;;;6.50;4.97;;;;;;;25.30;77.29;100823.59;5053824;28;20434;-72
2021/07/12 10:04:58;;;;;;;6.67;5.20;;;;;;;25.30;77.47;100817.25;5053298;28;20465;-73
2021/07/12 10:07:25;;;;;;;6.10;5.20;;;;;;;25.30;76.56;100818.03;5053500;28;20883;-72
2021/07/12 10:09:52;;;;;;;5.73;4.90;;;;;;;25.41;76.46;100816.06;5052978;28;20955;-72
2021/07/12 10:12:18;;;;;;;4.77;4.17;;;;;;;25.56;75.21;100813.28;5053265;28;20453;-73
2021/07/12 10:14:45;;;;;;;5.67;4.90;;;;;;;25.80;76.02;100808.91;5053310;28;20489;-72
2021/07/12 10:17:12;;;;;;;5.57;4.40;;;;;;;25.98;75.86;100817.97;5052934;28;20966;-73
2021/07/12 10:19:43;;;;;;;6.60;4.67;;;;;;;25.99;74.45;100810.47;5053146;28;20457;-72
2021/07/12 10:22:11;;;;;;;5.73;4.17;;;;;;;26.05;73.88;100817.19;5052944;28;20462;-73
2021/07/12 10:24:40;;;;;;;5.80;5.23;;;;;;;26.09;73.95;100812.41;5052866;28;20527;-72
2021/07/12 10:27:07;;;;;;;5.00;4.50;;;;;;;26.28;72.02;100808.34;5054339;28;20427;-73
2021/07/12 10:29:36;;;;;;;3.93;3.50;;;;;;;26.36;70.02;100801.59;5053028;28;20445;-73
2021/07/12 10:32:13;;;;;;;4.93;4.07;;;;;;;26.39;70.36;100786.91;5053285;28;20434;-71
2021/07/12 10:34:45;;;;;;;5.37;4.30;;;;;;;26.34;71.46;100796.44;5059350;28;20466;-70
2021/07/12 10:37:39;;;;;;;4.37;3.97;;;;;;;26.36;69.85;100791.25;5053211;28;20492;-70
2021/07/12 10:40:24;;;;;;;5.40;4.03;;;;;;;26.48;70.66;100789.25;5055006;28;20434;-72
2021/07/12 10:43:00;;;;;;;5.97;4.80;;;;;;;26.54;71.21;100787.63;5057191;28;20433;-72
2021/07/12 10:45:42;;;;;;;5.00;4.50;;;;;;;26.54;70.26;100788.41;5056919;28;20464;-74
2021/07/12 10:48:15;;;;;;;7.33;5.47;;;;;;;26.60;68.77;100789.56;5056729;28;20426;-78
2021/07/12 10:50:50;;;;;;;5.97;4.47;;;;;;;26.81;68.63;100779.53;5058172;28;20445;-78
2021/07/12 10:53:57;;;;;;;6.67;5.07;;;;;;;27.06;67.19;100782.13;5058076;28;20903;-77
2021/07/12 10:56:40;;;;;;;4.90;4.27;;;;;;;27.31;65.62;100781.94;5057310;28;20513;-76
2021/07/12 10:59:07;;;;;;;6.33;5.37;;;;;;;27.21;63.28;100775.28;5057922;28;20426;-76
2021/07/12 11:01:40;;;;;;;4.90;4.30;;;;;;;27.29;64.76;100782.34;5056508;28;20445;-76
2021/07/12 11:04:38;;;;;;;6.70;4.80;;;;;;;27.55;65.44;100782.94;5056408;28;20450;-76
2021/07/12 11:07:09;;;;;;;5.90;5.30;;;;;;;27.75;66.86;100786.69;5056526;28;20915;-76
2021/07/12 11:10:03;;;;;;;5.07;4.13;;;;;;;28.02;65.53;100788.78;5056694;28;20457;-76
2021/07/12 11:12:33;;;;;;;6.20;4.77;;;;;;;28.22;63.87;100786.97;5056662;28;20454;-76
2021/07/12 11:15:14;;;;;;;5.03;4.57;;;;;;;28.16;63.16;100775.50;5056578;28;20851;-73
2021/07/12 11:18:05;;;;;;;5.60;4.80;;;;;;;27.98;62.76;100774.94;5056488;28;20446;-76
2021/07/12 11:20:51;;;;;;;5.00;4.57;;;;;;;27.79;65.80;100784.69;5052728;28;20978;-76
2021/07/12 11:23:49;;;;;;;5.67;4.83;;;;;;;27.50;68.37;100775.03;5056493;28;20430;-75
2021/07/12 11:26:53;;;;;;;6.77;4.87;;;;;;;27.17;66.78;100775.28;5055093;28;20481;-75
2021/07/12 11:29:31;;;;;;;6.33;4.97;;;;;;;27.02;68.14;100775.81;5056275;28;20444;-75
2021/07/12 11:32:07;;;;;;;6.33;4.93;;;;;;;26.80;68.43;100778.72;5055861;28;20939;-76